Saint Anthony, Canada
Current Conditions -  °F | °C
As of 10:00 AM on Saturday 20 Dec 2014 (Local Time) from CYAY Reporting Station
Clear Clear  
Wind Chill: -10°   Ceiling: Unl
Heat Index: -10°   Visibility: 9mi
Dew Point: -11°   Wind: 3mph
Humidity: 93%   Direction: 320°NW
Pressure: 30.26"   Gusts: NA
Location:  51.48°N, 55.81°W
Report Text: CYAY 201300Z AUTO 32003KT 9SM CLR M10/M11 A3026 RMK SLP249
Loading
Personal Weather Stations






























Interactive Weather Map New forecast layout! Learn more

10-Day Weather Forecast

Advertisements
Track Severe Weather on mobile